ADDS METAR Data INFO
IDs: Format: Raw Decoded Include TAF

Data at: 0934 UTC 11 Dec 2017

KHBR 110853Z AUTO 30008KT 10SM CLR 00/M10 A3026 RMK AO2 SLP244 T00001100 56012
KHBR 110753Z AUTO 30007KT 10SM CLR 01/M10 A3026 RMK AO2 SLP246 T00061100
KHBR 110653Z AUTO 29009KT 10SM CLR 02/M11 A3027 RMK AO2 SLP249 T00221106
KHBR 110553Z AUTO 30008KT 10SM CLR 02/M10 A3029 RMK AO2 SLP257 T00221100 10161 20022 402221039 58002
KHBR 110453Z AUTO 30008KT 10SM CLR 03/M09 A3030 RMK AO2 SLP260 T00281094
KHBR 110353Z AUTO 35004KT 10SM CLR 08/M12 A3030 RMK AO2 SLP261 T00831117
KHBR 110253Z AUTO 29006KT 10SM CLR 09/M12 A3030 RMK AO2 SLP265 T00891122 53002
KHBR 110153Z AUTO 33006KT 10SM CLR 14/M12 A3029 RMK AO2 SLP263 T01391122
KHBR 110053Z AUTO 29005KT 10SM CLR 13/M12 A3030 RMK AO2 SLP264 T01281117
KHBR 102353Z AUTO 31004KT 10SM CLR 16/M12 A3029 RMK AO2 SLP261 T01611117 10222 20161 50001
KHBR 102253Z AUTO 31005KT 10SM CLR 19/M11 A3030 RMK AO2 SLP263 T01891111
KHBR 102153Z AUTO 32012KT 10SM CLR 22/M13 A3029 RMK AO2 SLP258 T02171133
KHBR 102053Z AUTO 32011KT 10SM CLR 22/M13 A3029 RMK AO2 SLP257 T02221128 56021
KHBR 101953Z AUTO 33011KT 10SM CLR 22/M12 A3031 RMK AO2 SLP261 T02221122
KHBR 101853Z AUTO 32010KT 10SM CLR 21/M11 A3033 RMK AO2 SLP270 T02111111
KHBR 101753Z AUTO 32008KT 10SM CLR 19/M11 A3036 RMK AO2 SLP281 T01891106 10189 21022 58003
KHBR 101653Z AUTO 34011KT 10SM CLR 15/M08 A3038 RMK AO2 SLP288 T01501083
KHBR 101553Z AUTO 30007KT 9SM CLR 08/M07 A3037 RMK AO2 SLP292 T00831072
KHBR 101453Z AUTO 27008KT 10SM CLR 03/M07 A3037 RMK AO2 SLP291 T00281067 53010
KHBR 101353Z AUTO 26012KT 10SM CLR M02/M08 A3035 RMK AO2 SLP287 T10171083
KHBR 101253Z AUTO 27010KT 10SM CLR M02/M09 A3034 RMK AO2 SLP282 T10221089
KHBR 101153Z AUTO 27011KT 10SM CLR M02/M09 A3034 RMK AO2 SLP279 T10221094 10000 21039 55002
KHBR 101053Z AUTO 28010KT 10SM CLR M03/M09 A3033 RMK AO2 SLP276 T10331094
KHBR 100953Z AUTO 29009KT 10SM CLR M03/M09 A3034 RMK AO2 SLP278 T10281094
KHBR 100853Z AUTO 29010KT 10SM CLR M02/M09 A3034 RMK AO2 SLP278 T10171089 55003
KHBR 100753Z AUTO 30008KT 10SM CLR M02/M09 A3034 RMK AO2 SLP277 T10171089
KHBR 100653Z AUTO 28009KT 10SM CLR M02/M09 A3034 RMK AO2 SLP279 T10171089
KHBR 100553Z AUTO 30008KT 10SM CLR M01/M09 A3035 RMK AO2 SLP283 T10061089 10111 21006 401671028 51011
KHBR 100453Z AUTO 28007KT 10SM CLR 02/M08 A3035 RMK AO2 SLP281 T00171083
KHBR 100353Z AUTO 27006KT 10SM CLR 00/M09 A3033 RMK AO2 SLP277 T00001094
KHBR 100253Z AUTO 30005KT 10SM CLR 03/M08 A3032 RMK AO2 SLP274 T00331078 51008
KHBR 100153Z AUTO 35006KT 10SM CLR 07/M08 A3031 RMK AO2 SLP271 T00671083
KHBR 100053Z AUTO 34005KT 10SM CLR 10/M08 A3030 RMK AO2 SLP266 T01001078
KHBR 092353Z AUTO 34004KT 10SM CLR 11/M08 A3029 RMK AO2 SLP264 T01111078 10167 20106 53010
KHBR 092253Z AUTO 35007KT 10SM CLR 14/M08 A3028 RMK AO2 SLP257 T01391078
KHBR 092153Z AUTO 35014KT 10SM CLR 16/M07 A3027 RMK AO2 SLP253 T01611072